Terminal Aerodrome Forecast
Issued by NWS

Home | Current Version | Previous Version | Text Only | Print | Product List | Glossary On
Versions: 1 2 3 4 5 6 7 8 9 10 11 12 13 14 15 16 17 18 19 20 21 22 23 24 25 26 27 28 29 30 31 32 33 34 35 36 37 38 39 40 41 42 43 44 45 46 47 48 49 50
000
FTUS45 KSLC 201907 AAA
TAFOGD
TAF AMD
KOGD 201907Z 2019/2118 17006KT 6SM BR SCT025 BKN050
     FM210100 15008KT P6SM VCSH SCT020 BKN035
     FM210400 15008KT 2SM -SHSN SCT009 BKN020
     FM211400 29006KT 1SM -SN SCT004 BKN010=

USA.gov is the U.S. government's official web portal to all federal, state and local government web resources and services.